Time,TemperatureF,DewpointF,PressureIn,WindDirection,WindDirectionDegrees,WindSpeedMPH,WindSpeedGustMPH,Humidity,HourlyPrecipIn,Conditions,Clouds,dailyrainin,SoftwareType,DateUTC
2013-01-25 00:02:00,21.0,6.0,-100.00,South,175,8.0,11.0,51,-99.99,,,-99.99,,2013-01-25 06:02:00,
2013-01-25 00:11:00,21.0,6.0,-100.00,SSE,160,8.0,16.0,51,-99.99,,,-99.99,,2013-01-25 06:11:00,
2013-01-25 00:21:00,21.0,6.0,-100.00,SE,135,7.0,15.0,50,-99.99,,,-99.99,,2013-01-25 06:21:00,
2013-01-25 00:32:00,21.0,6.0,-100.00,SE,135,7.0,15.0,50,-99.99,,,-99.99,,2013-01-25 06:32:00,
2013-01-25 00:42:00,21.0,6.0,-100.00,SE,125,6.0,14.0,51,-99.99,,,-99.99,,2013-01-25 06:42:00,
2013-01-25 00:52:00,21.0,6.0,-100.00,SE,135,7.0,15.0,51,-99.99,,,-99.99,,2013-01-25 06:52:00,
2013-01-25 01:02:00,21.0,6.0,-100.00,SE,135,7.0,15.0,51,-99.99,,,-99.99,,2013-01-25 07:02:00,
2013-01-25 01:11:00,21.0,6.0,-100.00,SE,140,8.0,13.0,51,-99.99,,,-99.99,,2013-01-25 07:11:00,
2013-01-25 01:21:00,21.0,7.0,-100.00,SE,125,9.0,14.0,52,-99.99,,,-99.99,,2013-01-25 07:21:00,
2013-01-25 01:32:00,21.0,7.0,-100.00,SE,125,9.0,14.0,52,-99.99,,,-99.99,,2013-01-25 07:32:00,
2013-01-25 01:42:00,21.0,7.0,-100.00,SE,125,8.0,14.0,52,-99.99,,,-99.99,,2013-01-25 07:42:00,
2013-01-25 01:52:00,21.0,7.0,-100.00,SE,140,9.0,16.0,52,-99.99,,,-99.99,,2013-01-25 07:52:00,
2013-01-25 02:02:00,21.0,7.0,-100.00,SE,140,9.0,16.0,52,-99.99,,,-99.99,,2013-01-25 08:02:00,
2013-01-25 02:11:00,21.0,7.0,-100.00,SE,135,13.0,21.0,52,-99.99,,,-99.99,,2013-01-25 08:11:00,
2013-01-25 02:21:00,21.0,7.0,-100.00,SE,145,9.0,15.0,52,-99.99,,,-99.99,,2013-01-25 08:21:00,
2013-01-25 02:32:00,21.0,7.0,-100.00,SE,145,9.0,15.0,52,-99.99,,,-99.99,,2013-01-25 08:32:00,
2013-01-25 02:41:00,21.0,7.0,-100.00,SE,135,8.0,14.0,52,-99.99,,,-99.99,,2013-01-25 08:41:00,
2013-01-25 02:52:00,21.0,7.0,-100.00,SE,135,8.0,16.0,52,-99.99,,,-99.99,,2013-01-25 08:52:00,
2013-01-25 03:02:00,21.0,7.0,-100.00,SE,135,8.0,16.0,52,-99.99,,,-99.99,,2013-01-25 09:02:00,
2013-01-25 03:11:00,21.0,7.0,-100.00,SSE,150,4.0,13.0,52,-99.99,,,-99.99,,2013-01-25 09:11:00,
2013-01-25 03:21:00,21.0,7.0,-100.00,SE,145,8.0,14.0,52,-99.99,,,-99.99,,2013-01-25 09:21:00,
2013-01-25 03:31:00,21.0,7.0,-100.00,SE,145,8.0,14.0,52,-99.99,,,-99.99,,2013-01-25 09:31:00,
2013-01-25 03:42:00,21.0,7.0,-100.00,SE,125,8.0,14.0,52,-99.99,,,-99.99,,2013-01-25 09:42:00,
2013-01-25 03:52:00,22.0,7.0,-100.00,SE,135,8.0,11.0,52,-99.99,,,-99.99,,2013-01-25 09:52:00,
2013-01-25 04:02:00,22.0,7.0,-100.00,SE,135,8.0,11.0,52,-99.99,,,-99.99,,2013-01-25 10:02:00,
2013-01-25 04:12:00,21.0,7.0,-100.00,SE,140,7.0,11.0,52,-99.99,,,-99.99,,2013-01-25 10:12:00,
2013-01-25 04:21:00,22.0,7.0,-100.00,SSE,160,5.0,10.0,52,-99.99,,,-99.99,,2013-01-25 10:21:00,
2013-01-25 04:32:00,22.0,7.0,-100.00,SSE,160,5.0,10.0,52,-99.99,,,-99.99,,2013-01-25 10:32:00,
2013-01-25 04:42:00,21.0,7.0,-100.00,SSE,155,6.0,13.0,53,-99.99,,,-99.99,,2013-01-25 10:42:00,
2013-01-25 04:52:00,21.0,8.0,-100.00,SSE,150,8.0,14.0,57,-99.99,,,-99.99,,2013-01-25 10:52:00,
2013-01-25 05:02:00,21.0,8.0,-100.00,SSE,150,8.0,14.0,57,-99.99,,,-99.99,,2013-01-25 11:02:00,
2013-01-25 05:11:00,20.0,9.0,-100.00,South,170,6.0,14.0,61,-99.99,,,-99.99,,2013-01-25 11:11:00,
2013-01-25 05:22:00,20.0,10.0,-100.00,SSE,165,9.0,13.0,64,-99.99,,,-99.99,,2013-01-25 11:22:00,
2013-01-25 05:32:00,20.0,10.0,-100.00,SSE,165,9.0,13.0,64,-99.99,,,-99.99,,2013-01-25 11:32:00,
2013-01-25 05:42:00,19.0,10.0,-100.00,SSE,160,5.0,14.0,67,-99.99,,,-99.99,,2013-01-25 11:42:00,
2013-01-25 05:52:00,19.0,11.0,-100.00,SE,140,4.0,13.0,70,-99.99,,,-99.99,,2013-01-25 11:52:00,
2013-01-25 06:02:00,19.0,11.0,-100.00,SE,140,4.0,13.0,70,-99.99,,,-99.99,,2013-01-25 12:02:00,
2013-01-25 06:11:00,19.0,12.0,-100.00,South,175,5.0,10.0,72,-99.99,,,-99.99,,2013-01-25 12:11:00,
2013-01-25 06:22:00,19.0,13.0,-100.00,South,175,3.0,6.0,75,-99.99,,,-99.99,,2013-01-25 12:22:00,
2013-01-25 06:32:00,19.0,13.0,-100.00,South,175,3.0,6.0,75,-99.99,,,-99.99,,2013-01-25 12:32:00,
2013-01-25 06:42:00,19.0,13.0,-100.00,South,175,4.0,8.0,77,-99.99,,,-99.99,,2013-01-25 12:42:00,
2013-01-25 06:53:00,19.0,14.0,-100.00,SSE,155,6.0,10.0,79,-99.99,,,-99.99,,2013-01-25 12:53:00,
2013-01-25 07:02:00,19.0,14.0,-100.00,SSE,155,6.0,10.0,79,-99.99,,,-99.99,,2013-01-25 13:02:00,
2013-01-25 07:11:00,19.0,14.0,-100.00,South,180,4.0,7.0,80,-99.99,,,-99.99,,2013-01-25 13:11:00,
2013-01-25 07:22:00,19.0,15.0,-100.00,South,170,6.0,8.0,82,-99.99,,,-99.99,,2013-01-25 13:22:00,
2013-01-25 07:32:00,19.0,15.0,-100.00,South,170,6.0,8.0,82,-99.99,,,-99.99,,2013-01-25 13:32:00,
2013-01-25 07:42:00,19.0,15.0,-100.00,South,180,4.0,7.0,83,-99.99,,,-99.99,,2013-01-25 13:42:00,
2013-01-25 07:53:00,20.0,16.0,-100.00,South,175,2.0,6.0,84,-99.99,,,-99.99,,2013-01-25 13:53:00,
2013-01-25 08:03:00,20.0,16.0,-100.00,South,175,2.0,6.0,84,-99.99,,,-99.99,,2013-01-25 14:03:00,
2013-01-25 08:12:00,20.0,16.0,-100.00,SW,215,1.0,7.0,85,-99.99,,,-99.99,,2013-01-25 14:12:00,
2013-01-25 08:23:00,20.0,17.0,-100.00,SW,220,2.0,6.0,86,-99.99,,,-99.99,,2013-01-25 14:23:00,
2013-01-25 08:32:00,20.0,17.0,-100.00,SW,220,2.0,6.0,86,-99.99,,,-99.99,,2013-01-25 14:32:00,
2013-01-25 08:42:00,20.0,17.0,-100.00,South,185,5.0,10.0,87,-99.99,,,-99.99,,2013-01-25 14:42:00,
2013-01-25 08:53:00,21.0,17.0,-100.00,SSW,210,2.0,9.0,87,-99.99,,,-99.99,,2013-01-25 14:53:00,
2013-01-25 09:02:00,21.0,17.0,-100.00,SSW,210,2.0,9.0,87,-99.99,,,-99.99,,2013-01-25 15:02:00,
2013-01-25 09:12:00,21.0,18.0,-100.00,SSW,205,2.0,9.0,87,-99.99,,,-99.99,,2013-01-25 15:12:00,
2013-01-25 09:22:00,21.0,18.0,-100.00,SSW,195,6.0,13.0,87,-99.99,,,-99.99,,2013-01-25 15:22:00,
2013-01-25 09:32:00,21.0,18.0,-100.00,SSW,195,6.0,13.0,87,-99.99,,,-99.99,,2013-01-25 15:32:00,
2013-01-25 09:42:00,22.0,18.0,-100.00,WSW,245,1.0,12.0,87,-99.99,,,-99.99,,2013-01-25 15:42:00,
2013-01-25 09:53:00,22.0,19.0,-100.00,South,185,6.0,10.0,87,-99.99,,,-99.99,,2013-01-25 15:53:00,
2013-01-25 10:03:00,22.0,19.0,-100.00,South,185,6.0,10.0,87,-99.99,,,-99.99,,2013-01-25 16:03:00,
2013-01-25 10:12:00,23.0,20.0,-100.00,SW,215,3.0,9.0,87,-99.99,,,-99.99,,2013-01-25 16:12:00,
2013-01-25 10:22:00,24.0,20.0,-100.00,SW,225,6.0,11.0,86,-99.99,,,-99.99,,2013-01-25 16:22:00,
2013-01-25 10:32:00,24.0,20.0,-100.00,SW,225,6.0,11.0,86,-99.99,,,-99.99,,2013-01-25 16:32:00,
2013-01-25 10:43:00,25.0,20.0,-100.00,SW,225,4.0,12.0,84,-99.99,,,-99.99,,2013-01-25 16:43:00,
2013-01-25 10:53:00,25.0,20.0,-100.00,SW,235,5.0,13.0,82,-99.99,,,-99.99,,2013-01-25 16:53:00,
2013-01-25 11:02:00,25.0,20.0,-100.00,SW,235,5.0,13.0,82,-99.99,,,-99.99,,2013-01-25 17:02:00,
2013-01-25 11:12:00,26.0,20.0,-100.00,SW,225,7.0,13.0,79,-99.99,,,-99.99,,2013-01-25 17:12:00,
2013-01-25 11:22:00,27.0,20.0,-100.00,WSW,245,2.0,11.0,76,-99.99,,,-99.99,,2013-01-25 17:22:00,
2013-01-25 11:32:00,27.0,20.0,-100.00,WSW,245,2.0,11.0,76,-99.99,,,-99.99,,2013-01-25 17:32:00,
2013-01-25 11:43:00,27.0,20.0,-100.00,West,260,6.0,16.0,74,-99.99,,,-99.99,,2013-01-25 17:43:00,
2013-01-25 11:53:00,28.0,20.0,-100.00,SW,220,8.0,15.0,71,-99.99,,,-99.99,,2013-01-25 17:53:00,
2013-01-25 12:03:00,27.0,19.0,-100.00,WSW,255,7.0,18.0,70,-99.99,,,-99.99,,2013-01-25 18:03:00,
2013-01-25 12:12:00,27.0,19.0,-100.00,WSW,255,7.0,18.0,70,-99.99,,,-99.99,,2013-01-25 18:12:00,
2013-01-25 12:23:00,28.0,19.0,-100.00,West,280,7.0,16.0,68,-99.99,,,-99.99,,2013-01-25 18:23:00,
2013-01-25 12:33:00,28.0,19.0,-100.00,West,280,7.0,16.0,68,-99.99,,,-99.99,,2013-01-25 18:33:00,
2013-01-25 12:42:00,29.0,19.0,-100.00,SW,235,9.0,19.0,66,-99.99,,,-99.99,,2013-01-25 18:42:00,
2013-01-25 12:52:00,29.0,19.0,-100.00,West,275,9.0,19.0,65,-99.99,,,-99.99,,2013-01-25 18:52:00,
2013-01-25 13:03:00,30.0,20.0,-100.00,WSW,245,8.0,14.0,65,-99.99,,,-99.99,,2013-01-25 19:03:00,
2013-01-25 13:12:00,30.0,20.0,-100.00,WSW,245,8.0,14.0,65,-99.99,,,-99.99,,2013-01-25 19:12:00,
2013-01-25 13:22:00,31.0,20.0,-100.00,WSW,255,7.0,14.0,64,-99.99,,,-99.99,,2013-01-25 19:22:00,
2013-01-25 13:32:00,31.0,20.0,-100.00,WSW,255,7.0,14.0,64,-99.99,,,-99.99,,2013-01-25 19:32:00,
2013-01-25 13:42:00,32.0,21.0,-100.00,West,275,11.0,16.0,62,-99.99,,,-99.99,,2013-01-25 19:42:00,
2013-01-25 13:53:00,32.0,20.0,-100.00,SW,225,6.0,14.0,62,-99.99,,,-99.99,,2013-01-25 19:53:00,
2013-01-25 14:03:00,32.0,20.0,-100.00,SW,225,6.0,14.0,62,-99.99,,,-99.99,,2013-01-25 20:03:00,
2013-01-25 14:12:00,33.0,21.0,-100.00,WSW,250,9.0,19.0,61,-99.99,,,-99.99,,2013-01-25 20:12:00,
2013-01-25 14:22:00,34.0,21.0,-100.00,West,270,12.0,20.0,59,-99.99,,,-99.99,,2013-01-25 20:22:00,
2013-01-25 14:32:00,34.0,21.0,-100.00,West,270,12.0,20.0,59,-99.99,,,-99.99,,2013-01-25 20:32:00,
2013-01-25 14:42:00,35.0,21.0,-100.00,West,270,9.0,23.0,57,-99.99,,,-99.99,,2013-01-25 20:42:00,
2013-01-25 14:53:00,35.0,20.0,-100.00,West,280,12.0,20.0,55,-99.99,,,-99.99,,2013-01-25 20:53:00,
2013-01-25 15:02:00,35.0,20.0,-100.00,West,280,12.0,20.0,55,-99.99,,,-99.99,,2013-01-25 21:02:00,
2013-01-25 15:12:00,35.0,20.0,-100.00,West,265,5.0,24.0,53,-99.99,,,-99.99,,2013-01-25 21:12:00,
2013-01-25 15:23:00,36.0,19.0,-100.00,WNW,285,11.0,19.0,51,-99.99,,,-99.99,,2013-01-25 21:23:00,
2013-01-25 15:33:00,36.0,19.0,-100.00,WNW,285,11.0,19.0,51,-99.99,,,-99.99,,2013-01-25 21:33:00,
2013-01-25 15:42:00,36.0,19.0,-100.00,West,265,8.0,20.0,50,-99.99,,,-99.99,,2013-01-25 21:42:00,
2013-01-25 15:52:00,36.0,19.0,-100.00,West,260,10.0,18.0,49,-99.99,,,-99.99,,2013-01-25 21:52:00,
2013-01-25 16:03:00,36.0,19.0,-100.00,West,260,10.0,18.0,49,-99.99,,,-99.99,,2013-01-25 22:03:00,
2013-01-25 16:12:00,36.0,19.0,-100.00,West,260,11.0,22.0,49,-99.99,,,-99.99,,2013-01-25 22:12:00,
2013-01-25 16:22:00,36.0,19.0,-100.00,West,280,9.0,18.0,49,-99.99,,,-99.99,,2013-01-25 22:22:00,
2013-01-25 16:33:00,36.0,19.0,-100.00,West,280,9.0,18.0,49,-99.99,,,-99.99,,2013-01-25 22:33:00,
2013-01-25 16:42:00,36.0,19.0,-100.00,West,280,9.0,23.0,49,-99.99,,,-99.99,,2013-01-25 22:42:00,
2013-01-25 16:53:00,36.0,18.0,-100.00,West,265,11.0,21.0,49,-99.99,,,-99.99,,2013-01-25 22:53:00,
2013-01-25 17:02:00,36.0,18.0,-100.00,West,265,11.0,21.0,49,-99.99,,,-99.99,,2013-01-25 23:02:00,
2013-01-25 17:12:00,35.0,18.0,-100.00,WNW,300,9.0,16.0,49,-99.99,,,-99.99,,2013-01-25 23:12:00,
2013-01-25 17:22:00,35.0,18.0,-100.00,NW,305,6.0,21.0,50,-99.99,,,-99.99,,2013-01-25 23:22:00,
2013-01-25 17:32:00,35.0,18.0,-100.00,NW,305,6.0,21.0,50,-99.99,,,-99.99,,2013-01-25 23:32:00,
2013-01-25 17:42:00,34.0,18.0,-100.00,NW,325,9.0,18.0,51,-99.99,,,-99.99,,2013-01-25 23:42:00,
2013-01-25 17:53:00,33.0,18.0,-100.00,NW,325,13.0,21.0,54,-99.99,,,-99.99,,2013-01-25 23:53:00,
2013-01-25 18:02:00,33.0,18.0,-100.00,NW,325,13.0,21.0,54,-99.99,,,-99.99,,2013-01-26 00:02:00,
2013-01-25 18:11:00,31.0,18.0,-100.00,NW,310,7.0,20.0,56,-99.99,,,-99.99,,2013-01-26 00:11:00,
2013-01-25 18:22:00,30.0,18.0,-100.00,NNW,330,8.0,19.0,59,-99.99,,,-99.99,,2013-01-26 00:22:00,
2013-01-25 18:32:00,30.0,18.0,-100.00,NNW,330,8.0,19.0,59,-99.99,,,-99.99,,2013-01-26 00:32:00,
2013-01-25 18:42:00,29.0,18.0,-100.00,NW,320,11.0,20.0,62,-99.99,,,-99.99,,2013-01-26 00:42:00,
2013-01-25 18:53:00,29.0,18.0,-100.00,NW,325,6.0,17.0,64,-99.99,,,-99.99,,2013-01-26 00:53:00,
2013-01-25 19:02:00,29.0,18.0,-100.00,NW,325,6.0,17.0,64,-99.99,,,-99.99,,2013-01-26 01:02:00,
2013-01-25 19:11:00,28.0,18.0,-100.00,NW,315,7.0,10.0,65,-99.99,,,-99.99,,2013-01-26 01:11:00,
2013-01-25 19:22:00,28.0,18.0,-100.00,NNW,330,4.0,9.0,67,-99.99,,,-99.99,,2013-01-26 01:22:00,
2013-01-25 19:31:00,27.0,18.0,-100.00,WNW,300,6.0,9.0,69,-99.99,,,-99.99,,2013-01-26 01:31:00,
2013-01-25 19:32:00,28.0,18.0,-100.00,NNW,330,4.0,9.0,67,-99.99,,,-99.99,,2013-01-26 01:32:00,
2013-01-25 19:42:00,28.0,19.0,-100.00,NW,315,3.0,8.0,68,-99.99,,,-99.99,,2013-01-26 01:42:00,
2013-01-25 19:52:00,27.0,19.0,-100.00,WNW,290,6.0,8.0,69,-99.99,,,-99.99,,2013-01-26 01:52:00,
2013-01-25 20:01:00,27.0,19.0,-100.00,WNW,290,6.0,8.0,69,-99.99,,,-99.99,,2013-01-26 02:01:00,
2013-01-25 20:11:00,27.0,18.0,-100.00,WNW,300,6.0,9.0,69,-99.99,,,-99.99,,2013-01-26 02:11:00,
2013-01-25 20:22:00,27.0,18.0,-100.00,WNW,300,6.0,9.0,69,-99.99,,,-99.99,,2013-01-26 02:22:00,
2013-01-25 20:52:00,26.0,18.0,-100.00,WNW,295,9.0,16.0,70,-99.99,,,-99.99,,2013-01-26 02:52:00,
2013-01-25 21:02:00,26.0,18.0,-100.00,WNW,295,9.0,16.0,70,-99.99,,,-99.99,,2013-01-26 03:02:00,
2013-01-25 21:11:00,26.0,17.0,-100.00,NW,310,8.0,16.0,69,-99.99,,,-99.99,,2013-01-26 03:11:00,
2013-01-25 21:22:00,25.0,16.0,-100.00,NW,310,8.0,16.0,67,-99.99,,,-99.99,,2013-01-26 03:22:00,
2013-01-25 21:31:00,25.0,16.0,-100.00,NW,310,8.0,16.0,67,-99.99,,,-99.99,,2013-01-26 03:31:00,
2013-01-25 21:43:00,25.0,15.0,-100.00,NNW,335,7.0,14.0,65,-99.99,,,-99.99,,2013-01-26 03:43:00,
2013-01-25 21:52:00,24.0,14.0,-100.00,NW,310,6.0,13.0,65,-99.99,,,-99.99,,2013-01-26 03:52:00,
2013-01-25 22:02:00,24.0,14.0,-100.00,NW,310,6.0,13.0,65,-99.99,,,-99.99,,2013-01-26 04:02:00,
2013-01-25 22:12:00,24.0,13.0,-100.00,NW,325,6.0,16.0,64,-99.99,,,-99.99,,2013-01-26 04:12:00,
2013-01-25 22:21:00,22.0,12.0,-100.00,NNW,330,4.0,10.0,64,-99.99,,,-99.99,,2013-01-26 04:21:00,
2013-01-25 22:32:00,22.0,12.0,-100.00,NNW,335,6.0,10.0,64,-99.99,,,-99.99,,2013-01-26 04:32:00,
2013-01-25 22:42:00,22.0,12.0,-100.00,NNW,335,6.0,10.0,64,-99.99,,,-99.99,,2013-01-26 04:42:00,
2013-01-25 22:52:00,22.0,11.0,-100.00,NNE,15,4.0,14.0,64,-99.99,,,-99.99,,2013-01-26 04:52:00,
2013-01-25 23:03:00,22.0,11.0,-100.00,NNE,15,4.0,14.0,64,-99.99,,,-99.99,,2013-01-26 05:03:00,
2013-01-25 23:12:00,21.0,11.0,-100.00,NW,320,9.0,14.0,64,-99.99,,,-99.99,,2013-01-26 05:12:00,
2013-01-25 23:23:00,21.0,11.0,-100.00,NNW,330,4.0,14.0,64,-99.99,,,-99.99,,2013-01-26 05:23:00,
2013-01-25 23:33:00,21.0,11.0,-100.00,NNW,330,4.0,14.0,64,-99.99,,,-99.99,,2013-01-26 05:33:00,
2013-01-25 23:41:00,20.0,10.0,-100.00,NW,315,0.0,11.0,64,-99.99,,,-99.99,,2013-01-26 05:41:00,
2013-01-25 23:52:00,20.0,10.0,-100.00,NNW,340,6.0,14.0,65,-99.99,,,-99.99,,2013-01-26 05:52:00,